createdAt,value
2018-05-13T00:00:17.154Z,49.50
2018-05-13T00:02:44.075Z,49.10
2018-05-13T00:05:10.702Z,48.70
2018-05-13T00:07:37.319Z,48.70
2018-05-13T00:10:03.644Z,48.60
2018-05-13T00:12:30.109Z,48.60
2018-05-13T00:14:57.662Z,48.60
2018-05-13T00:17:24.673Z,48.20
2018-05-13T00:19:51.189Z,47.90
2018-05-13T00:22:17.505Z,47.90
2018-05-13T00:24:45.906Z,48.10
2018-05-13T00:27:12.809Z,48.60
2018-05-13T00:29:40.976Z,48.80
2018-05-13T00:32:07.675Z,48.70
2018-05-13T00:34:34.433Z,48.70
2018-05-13T00:37:00.768Z,49.40
2018-05-13T00:39:26.996Z,49.40
2018-05-13T00:41:53.294Z,49.30
2018-05-13T00:44:19.532Z,49.40
2018-05-13T00:46:45.886Z,49.40
2018-05-13T00:49:12.911Z,50.30
2018-05-13T00:51:39.251Z,50.30
2018-05-13T00:56:51.800Z,50.40
2018-05-13T00:59:18.146Z,50.40
2018-05-13T01:01:45.285Z,50.30
2018-05-13T01:04:13.424Z,50.40
2018-05-13T01:06:41.486Z,50.80
2018-05-13T01:09:12.858Z,50.70
2018-05-13T01:11:45.638Z,50.80
2018-05-13T01:14:16.845Z,51.20
2018-05-13T01:16:46.339Z,51.80
2018-05-13T01:19:15.688Z,51.90
2018-05-13T01:21:42.151Z,51.80
2018-05-13T01:24:09.100Z,52.30
2018-05-13T01:26:47.625Z,52.50
2018-05-13T01:29:16.897Z,53.50
2018-05-13T01:34:46.098Z,52.80
2018-05-13T01:37:13.023Z,53.00
2018-05-13T01:39:42.760Z,53.20
2018-05-13T01:42:16.018Z,53.40
2018-05-13T01:44:43.754Z,53.50
2018-05-13T01:47:10.484Z,53.70
2018-05-13T01:49:36.944Z,54.10
2018-05-13T01:52:03.696Z,54.60
2018-05-13T01:54:32.376Z,54.30
2018-05-13T01:56:58.968Z,54.50
2018-05-13T01:59:26.954Z,54.50
2018-05-13T02:01:54.742Z,54.90
2018-05-13T02:04:21.476Z,55.30
2018-05-13T02:06:47.885Z,55.80
2018-05-13T02:09:14.416Z,55.80
2018-05-13T02:11:41.134Z,56.80
2018-05-13T02:14:07.667Z,56.00
2018-05-13T02:16:34.140Z,55.60
2018-05-13T02:19:00.860Z,55.70
2018-05-13T02:21:27.630Z,55.70
2018-05-13T02:23:57.125Z,55.80
2018-05-13T02:26:33.185Z,55.90
2018-05-13T02:29:02.677Z,56.10
2018-05-13T02:31:29.066Z,55.50
2018-05-13T02:33:58.698Z,56.00
2018-05-13T02:36:26.681Z,56.00
2018-05-13T02:38:53.377Z,56.30
2018-05-13T02:41:19.671Z,56.40
2018-05-13T02:43:46.093Z,56.50
2018-05-13T02:46:16.461Z,56.20
2018-05-13T02:48:44.211Z,56.40
2018-05-13T02:51:15.545Z,56.80
2018-05-13T02:53:45.570Z,57.30
2018-05-13T02:56:15.701Z,56.90
2018-05-13T02:58:45.918Z,57.40
2018-05-13T03:01:16.293Z,57.10
2018-05-13T03:03:46.528Z,58.30
2018-05-13T03:06:18.909Z,57.60
2018-05-13T03:11:49.146Z,57.60
2018-05-13T03:14:16.540Z,56.80
2018-05-13T03:16:45.916Z,57.70
2018-05-13T03:19:13.221Z,57.60
2018-05-13T03:21:41.481Z,57.60
2018-05-13T03:24:15.294Z,57.60
2018-05-13T03:26:42.067Z,57.60
2018-05-13T03:29:12.185Z,57.70
2018-05-13T03:31:40.009Z,57.70
2018-05-13T03:34:08.064Z,57.60
2018-05-13T03:36:35.309Z,57.60
2018-05-13T03:39:02.969Z,57.70
2018-05-13T03:41:33.144Z,57.70
2018-05-13T03:43:59.930Z,57.70
2018-05-13T03:46:33.269Z,57.70
2018-05-13T03:49:04.009Z,57.70
2018-05-13T03:51:39.823Z,57.70
2018-05-13T03:54:16.047Z,57.50
2018-05-13T03:56:44.063Z,57.30
2018-05-13T03:59:17.064Z,57.50
2018-05-13T04:01:47.849Z,56.70
2018-05-13T04:04:18.024Z,56.40
2018-05-13T04:06:46.534Z,56.50
2018-05-13T04:09:27.238Z,56.40
2018-05-13T04:12:16.417Z,57.70
2018-05-13T04:14:55.579Z,57.50
2018-05-13T04:17:26.049Z,57.80
2018-05-13T04:19:52.883Z,57.80
2018-05-13T04:22:19.344Z,57.80
2018-05-13T04:24:45.806Z,57.70
2018-05-13T04:27:15.868Z,57.80
2018-05-13T04:35:45.797Z,56.60
2018-05-13T04:38:18.767Z,56.60
2018-05-13T04:43:48.242Z,57.80
2018-05-13T04:46:16.076Z,57.80
2018-05-13T04:48:42.659Z,57.90
2018-05-13T04:54:15.919Z,57.30
2018-05-13T05:02:45.960Z,57.40
2018-05-13T05:05:16.306Z,57.20
2018-05-13T05:07:48.085Z,57.20
2018-05-13T05:13:17.207Z,57.50
2018-05-13T05:15:46.110Z,57.20
2018-05-13T05:18:17.057Z,57.20
2018-05-13T05:20:47.542Z,56.50
2018-05-13T05:23:17.251Z,55.60
2018-05-13T05:25:47.558Z,54.80
2018-05-13T05:28:17.662Z,53.90
2018-05-13T05:30:47.019Z,53.40
2018-05-13T05:33:17.680Z,52.50
2018-05-13T05:35:46.154Z,52.50
2018-05-13T05:38:18.022Z,52.40
2018-05-13T05:43:47.457Z,51.90
2018-05-13T05:46:17.737Z,51.80
2018-05-13T05:48:46.982Z,51.70
2018-05-13T05:51:13.761Z,51.70
2018-05-13T05:53:43.142Z,51.50
2018-05-13T05:56:10.759Z,51.10
2018-05-13T05:58:47.419Z,50.70
2018-05-13T06:01:16.937Z,51.00
2018-05-13T06:03:46.985Z,50.40
2018-05-13T06:06:18.147Z,50.10
2018-05-13T06:08:47.487Z,50.00
2018-05-13T06:11:16.899Z,50.10
2018-05-13T06:13:47.127Z,50.10
2018-05-13T06:16:17.281Z,50.20
2018-05-13T06:18:47.962Z,50.20
2018-05-13T06:21:17.061Z,50.20
2018-05-13T06:23:46.923Z,50.20
2018-05-13T06:26:13.151Z,50.30
2018-05-13T06:28:39.351Z,50.10
2018-05-13T06:31:05.576Z,49.00
2018-05-13T06:33:32.683Z,49.00
2018-05-13T06:36:00.030Z,49.10
2018-05-13T06:38:27.755Z,49.50
2018-05-13T06:40:55.115Z,49.50
2018-05-13T06:43:32.493Z,48.40
2018-05-13T06:46:15.948Z,48.90
2018-05-13T06:48:46.530Z,48.20
2018-05-13T06:51:16.851Z,48.40
2018-05-13T06:53:47.106Z,48.00
2018-05-13T06:56:17.402Z,48.00
2018-05-13T06:58:44.707Z,47.20
2018-05-13T07:01:13.301Z,46.50
2018-05-13T07:03:40.599Z,46.50
2018-05-13T07:06:10.364Z,46.60
2018-05-13T07:08:36.905Z,45.50
2018-05-13T07:11:03.299Z,46.00
2018-05-13T07:13:32.776Z,46.10
2018-05-13T07:16:00.166Z,46.10
2018-05-13T07:18:46.335Z,46.50
2018-05-13T07:21:12.689Z,47.20
2018-05-13T07:23:43.276Z,47.50
2018-05-13T07:26:09.624Z,47.30
2018-05-13T07:28:42.975Z,46.70
2018-05-13T07:31:09.293Z,45.60
2018-05-13T07:33:39.800Z,46.10
2018-05-13T07:36:08.674Z,46.30
2018-05-13T07:38:36.231Z,46.10
2018-05-13T07:41:02.686Z,44.90
2018-05-13T07:43:31.616Z,45.30
2018-05-13T07:45:58.646Z,45.10
2018-05-13T07:48:33.228Z,44.60
2018-05-13T07:56:47.464Z,43.90
2018-05-13T08:17:16.303Z,43.50
2018-05-13T08:28:32.847Z,42.60
2018-05-13T08:30:59.947Z,42.60
2018-05-13T08:33:33.606Z,42.60
2018-05-13T08:41:48.086Z,42.60
2018-05-13T08:44:15.767Z,42.80
2018-05-13T08:49:46.543Z,41.80
2018-05-13T08:55:33.192Z,41.80
2018-05-13T08:58:18.490Z,41.80
2018-05-13T09:00:46.226Z,41.80
2018-05-13T09:09:19.063Z,41.40
2018-05-13T09:11:48.489Z,41.00
2018-05-13T09:17:16.504Z,40.90
2018-05-13T09:19:44.854Z,40.30
2018-05-13T09:28:17.383Z,39.40
2018-05-13T09:46:47.595Z,37.50
2018-05-13T09:49:17.123Z,37.20
2018-05-13T09:54:49.066Z,38.20
2018-05-13T10:00:19.027Z,37.30
2018-05-13T10:18:03.395Z,36.60
2018-05-13T10:20:49.998Z,35.70
2018-05-13T10:32:21.795Z,34.80
2018-05-13T10:41:10.260Z,35.20
2018-05-13T10:43:36.632Z,34.40
2018-05-13T10:46:02.964Z,34.00
2018-05-13T10:48:31.339Z,34.90
2018-05-13T10:50:57.665Z,34.90
2018-05-13T10:53:24.912Z,35.20
2018-05-13T10:55:53.407Z,34.90
2018-05-13T10:58:20.785Z,34.80
2018-05-13T11:00:47.332Z,35.30
2018-05-13T11:03:14.570Z,35.20
2018-05-13T11:05:40.908Z,37.00
2018-05-13T11:08:07.496Z,37.20
2018-05-13T11:10:45.245Z,37.10
2018-05-13T11:19:14.735Z,36.40
2018-05-13T11:21:42.944Z,36.30
2018-05-13T11:24:12.196Z,36.30
2018-05-13T11:26:44.864Z,35.40
2018-05-13T11:29:16.238Z,36.40
2018-05-13T11:31:46.259Z,36.80
2018-05-13T11:34:16.591Z,38.00
2018-05-13T11:36:46.597Z,37.50
2018-05-13T11:39:34.610Z,37.50
2018-05-13T11:42:03.841Z,37.50
2018-05-13T11:44:30.419Z,37.70
2018-05-13T11:47:05.464Z,37.50
2018-05-13T11:49:35.521Z,37.30
2018-05-13T11:52:02.115Z,37.00
2018-05-13T11:54:29.622Z,37.70
2018-05-13T11:56:59.544Z,37.90
2018-05-13T11:59:27.106Z,37.70
2018-05-13T12:01:54.599Z,37.40
2018-05-13T12:04:23.179Z,37.40
2018-05-13T12:06:56.219Z,36.70
2018-05-13T12:09:24.750Z,36.60
2018-05-13T12:11:53.397Z,35.60
2018-05-13T12:14:26.508Z,35.70
2018-05-13T12:16:55.475Z,34.80
2018-05-13T12:19:26.960Z,33.50
2018-05-13T12:21:57.305Z,32.40
2018-05-13T12:24:24.048Z,31.50
2018-05-13T12:26:52.325Z,31.00
2018-05-13T12:29:20.480Z,31.00
2018-05-13T12:31:47.860Z,31.00
2018-05-13T12:34:16.178Z,31.00
2018-05-13T12:36:56.454Z,30.00
2018-05-13T12:39:23.093Z,30.10
2018-05-13T12:41:51.722Z,30.40
2018-05-13T12:44:18.832Z,31.00
2018-05-13T12:46:56.636Z,31.60
2018-05-13T12:49:25.378Z,31.10
2018-05-13T12:51:52.978Z,32.40
2018-05-13T12:54:22.919Z,31.60
2018-05-13T12:56:49.314Z,31.30
2018-05-13T12:59:15.858Z,31.00
2018-05-13T13:01:56.289Z,29.90
2018-05-13T13:04:43.430Z,29.70
2018-05-13T13:07:11.520Z,30.70
2018-05-13T13:09:38.059Z,30.80
2018-05-13T13:12:06.487Z,31.10
2018-05-13T13:14:34.635Z,31.80
2018-05-13T13:17:03.085Z,31.80
2018-05-13T13:19:29.820Z,31.80
2018-05-13T13:21:58.140Z,31.70
2018-05-13T13:27:27.108Z,32.80
2018-05-13T13:29:54.431Z,32.10
2018-05-13T13:32:23.601Z,31.20
2018-05-13T13:34:51.185Z,31.50
2018-05-13T13:40:27.604Z,30.90
2018-05-13T13:42:53.926Z,30.10
2018-05-13T13:45:20.239Z,29.70
2018-05-13T13:47:53.291Z,29.60
2018-05-13T13:50:21.697Z,29.90
2018-05-13T13:55:41.656Z,30.50
2018-05-13T13:58:08.691Z,31.10
2018-05-13T14:00:35.039Z,31.70
2018-05-13T14:03:01.376Z,32.60
2018-05-13T14:05:30.160Z,32.70
2018-05-13T14:07:56.651Z,33.60
2018-05-13T14:10:47.421Z,33.00
2018-05-13T14:13:33.546Z,32.90
2018-05-13T14:16:00.998Z,33.50
2018-05-13T14:18:27.339Z,34.10
2018-05-13T14:20:53.623Z,34.20
2018-05-13T14:23:24.281Z,35.00
2018-05-13T14:25:52.113Z,35.40
2018-05-13T14:28:20.390Z,35.30
2018-05-13T14:30:47.127Z,35.20
2018-05-13T14:33:13.416Z,35.20
2018-05-13T14:35:41.382Z,37.00
2018-05-13T14:38:08.733Z,37.00
2018-05-13T14:40:34.962Z,38.30
2018-05-13T14:43:01.198Z,38.90
2018-05-13T14:45:28.484Z,39.20
2018-05-13T14:47:55.815Z,40.20
2018-05-13T14:50:23.266Z,40.30
2018-05-13T14:53:03.950Z,39.10
2018-05-13T14:58:05.251Z,39.40
2018-05-13T15:00:33.733Z,40.40
2018-05-13T15:03:00.415Z,39.30
2018-05-13T15:05:26.713Z,39.70
2018-05-13T15:07:55.198Z,39.40
2018-05-13T15:10:23.459Z,39.70
2018-05-13T15:12:51.931Z,39.10
2018-05-13T15:15:26.871Z,39.00
2018-05-13T15:17:54.170Z,38.90
2018-05-13T15:20:21.989Z,39.20
2018-05-13T15:22:55.553Z,40.20
2018-05-13T15:25:21.890Z,41.70
2018-05-13T15:27:48.210Z,43.00
2018-05-13T15:30:15.539Z,44.20
2018-05-13T15:32:48.250Z,44.90
2018-05-13T15:35:15.647Z,46.10
2018-05-13T15:37:42.004Z,49.20
2018-05-13T15:40:13.710Z,47.40
2018-05-13T15:42:42.114Z,48.90
2018-05-13T15:45:12.327Z,48.40
2018-05-13T15:47:39.405Z,49.50
2018-05-13T15:50:11.266Z,49.50
2018-05-13T15:52:44.188Z,49.30
2018-05-13T15:55:11.528Z,48.40
2018-05-13T15:57:56.496Z,48.40
2018-05-13T16:00:28.786Z,49.80
2018-05-13T16:02:55.013Z,48.30
2018-05-13T16:05:28.013Z,49.50
2018-05-13T16:07:57.165Z,46.70
2018-05-13T16:10:24.431Z,47.60
2018-05-13T16:12:52.501Z,48.70
2018-05-13T16:15:21.677Z,48.70
2018-05-13T16:17:52.568Z,46.90
2018-05-13T16:20:26.741Z,45.80
2018-05-13T16:23:00.922Z,46.80
2018-05-13T16:25:36.399Z,45.30
2018-05-13T16:28:03.188Z,45.60
2018-05-13T16:30:33.314Z,44.50
2018-05-13T16:33:00.699Z,44.50
2018-05-13T16:35:28.859Z,45.50
2018-05-13T16:37:56.456Z,45.20
2018-05-13T16:40:22.883Z,44.60
2018-05-13T16:42:50.339Z,45.40
2018-05-13T16:45:25.862Z,46.00
2018-05-13T16:47:52.238Z,45.80
2018-05-13T16:56:41.210Z,45.80
2018-05-13T16:59:07.777Z,46.00
2018-05-13T17:01:40.317Z,46.20
2018-05-13T17:10:13.922Z,46.50
2018-05-13T17:12:42.343Z,46.00
2018-05-13T17:15:08.639Z,47.10
2018-05-13T17:17:56.961Z,47.00
2018-05-13T17:30:00.066Z,47.40
2018-05-13T17:32:27.315Z,47.10
2018-05-13T17:34:59.534Z,47.80
2018-05-13T17:52:58.291Z,49.40
2018-05-13T18:13:44.829Z,50.80
2018-05-13T18:28:01.084Z,51.40
2018-05-13T18:30:27.682Z,51.10
2018-05-13T18:32:59.363Z,51.30
2018-05-13T18:35:32.460Z,52.20
2018-05-13T18:41:01.135Z,52.40
2018-05-13T18:43:30.713Z,53.10
2018-05-13T18:45:57.955Z,53.70
2018-05-13T18:48:27.940Z,53.70
2018-05-13T18:51:01.370Z,54.10
2018-05-13T18:53:30.701Z,54.30
2018-05-13T18:56:02.207Z,55.20
2018-05-13T19:01:32.120Z,56.10
2018-05-13T19:04:19.933Z,56.20
2018-05-13T19:06:46.481Z,56.50
2018-05-13T19:12:15.901Z,57.20
2018-05-13T19:14:46.185Z,56.50
2018-05-13T19:20:22.542Z,57.30
2018-05-13T19:22:49.494Z,57.20
2018-05-13T19:25:16.545Z,57.80
2018-05-13T19:27:45.801Z,57.80
2018-05-13T19:30:13.896Z,58.70
2018-05-13T19:32:46.955Z,58.90
2018-05-13T19:35:13.798Z,59.10
2018-05-13T19:37:44.627Z,59.80
2018-05-13T19:40:13.943Z,59.80
2018-05-13T19:42:46.358Z,59.80
2018-05-13T19:45:16.422Z,61.00
2018-05-13T19:47:45.372Z,61.40
2018-05-13T19:50:18.992Z,62.00
2018-05-13T19:52:45.342Z,62.50
2018-05-13T19:55:11.575Z,62.80
2018-05-13T19:57:37.862Z,62.50
2018-05-13T20:00:05.933Z,62.90
2018-05-13T20:02:32.214Z,62.80
2018-05-13T20:04:58.423Z,63.30
2018-05-13T20:07:25.347Z,64.10
2018-05-13T20:09:51.759Z,64.00
2018-05-13T20:12:17.928Z,66.70
2018-05-13T20:14:44.429Z,66.50
2018-05-13T20:17:14.836Z,66.80
2018-05-13T20:19:45.327Z,68.20
2018-05-13T20:22:16.667Z,68.40
2018-05-13T20:24:44.690Z,71.10
2018-05-13T20:27:10.954Z,71.10
2018-05-13T20:29:37.846Z,72.00
2018-05-13T20:32:14.622Z,75.00
2018-05-13T20:34:45.921Z,73.70
2018-05-13T20:37:15.081Z,76.20
2018-05-13T20:39:45.346Z,77.20
2018-05-13T20:42:15.643Z,75.00
2018-05-13T20:44:45.675Z,77.60
2018-05-13T20:47:15.371Z,76.60
2018-05-13T20:49:45.422Z,77.00
2018-05-13T20:52:14.432Z,78.40
2018-05-13T20:54:47.159Z,78.40
2018-05-13T20:57:15.629Z,77.20
2018-05-13T20:59:44.810Z,79.00
2018-05-13T21:02:14.793Z,79.00
2018-05-13T21:04:44.681Z,79.00
2018-05-13T21:07:14.277Z,79.00
2018-05-13T21:12:35.431Z,79.00
2018-05-13T21:15:04.809Z,78.90
2018-05-13T21:20:44.196Z,79.10
2018-05-13T21:23:17.299Z,78.70
2018-05-13T21:25:45.890Z,80.70
2018-05-13T21:28:16.053Z,80.50
2018-05-13T21:30:44.424Z,80.20
2018-05-13T21:33:14.574Z,80.90
2018-05-13T21:35:47.007Z,80.10
2018-05-13T21:38:14.513Z,81.30
2018-05-13T21:40:44.730Z,80.90
2018-05-13T21:43:15.267Z,80.80
2018-05-13T21:45:45.538Z,80.80
2018-05-13T21:48:18.631Z,80.80
2018-05-13T21:50:45.203Z,80.00
2018-05-13T21:53:15.449Z,81.20
2018-05-13T21:55:45.746Z,81.30
2018-05-13T21:58:16.123Z,81.50
2018-05-13T22:12:37.295Z,80.50
2018-05-13T22:15:03.506Z,80.70
2018-05-13T22:17:30.560Z,81.90
2018-05-13T22:19:56.974Z,81.90
2018-05-13T22:22:23.187Z,81.60
2018-05-13T22:24:49.417Z,80.20
2018-05-13T22:27:15.600Z,78.60
2018-05-13T22:29:41.818Z,80.00
2018-05-13T22:32:08.014Z,78.70
2018-05-13T22:34:37.412Z,78.80
2018-05-13T22:37:03.874Z,78.80
2018-05-13T22:39:44.178Z,78.60
2018-05-13T22:42:11.725Z,78.60
2018-05-13T22:44:42.085Z,79.40
2018-05-13T22:47:09.447Z,78.60
2018-05-13T22:52:14.099Z,79.40
2018-05-13T22:57:15.138Z,79.40
2018-05-13T22:59:44.566Z,79.50
2018-05-13T23:02:12.547Z,79.80
2018-05-13T23:07:14.524Z,80.00
2018-05-13T23:12:43.759Z,80.40
2018-05-13T23:15:10.007Z,81.00
2018-05-13T23:17:36.223Z,80.70
2018-05-13T23:20:02.701Z,80.10
2018-05-13T23:22:33.769Z,80.30
2018-05-13T23:25:00.037Z,80.10
2018-05-13T23:27:26.429Z,79.90
2018-05-13T23:29:52.712Z,79.70
2018-05-13T23:32:18.944Z,79.30
2018-05-13T23:34:45.157Z,79.60
2018-05-13T23:37:11.942Z,79.10
2018-05-13T23:39:44.300Z,79.10
2018-05-13T23:42:14.982Z,78.60
2018-05-13T23:44:44.401Z,78.40
2018-05-13T23:47:10.644Z,79.60
2018-05-13T23:49:36.900Z,79.70
2018-05-13T23:52:03.206Z,79.00
2018-05-13T23:54:31.018Z,79.40
2018-05-13T23:56:58.531Z,78.20
2018-05-13T23:59:25.140Z,78.20
